Time;durP1;ratioP1;P1;durP2;ratioP2;P2;SDS_P1;SDS_P2;PMS_P1;PMS_P2;Temp;Humidity;BMP_temperature;BMP_pressure;BME280_temperature;BME280_humidity;BME280_pressure;Samples;Min_cycle;Max_cycle;Signal;HPM_P1;HPM_P2
2021/12/02 00:01:29;;;;;;;3.40;2.30;;;;;;;-1.18;100.00;98468.66;5084886;28;20021;-74
2021/12/02 00:03:55;;;;;;;4.85;2.28;;;;;;;-1.32;100.00;98449.00;5084468;28;20386;-73
2021/12/02 00:06:21;;;;;;;4.05;2.17;;;;;;;-1.29;100.00;98460.97;5068793;28;20055;-73
2021/12/02 00:08:49;;;;;;;5.88;3.05;;;;;;;-1.28;100.00;98484.41;5068417;28;20028;-73
2021/12/02 00:11:15;;;;;;;4.20;2.65;;;;;;;-1.27;100.00;98493.88;5084273;28;20035;-74
2021/12/02 00:21:17;;;;;;;6.28;2.00;;;;;;;-1.25;100.00;98504.22;5068705;28;20802;-74
2021/12/02 00:24:02;;;;;;;5.82;2.55;;;;;;;-1.30;100.00;98496.81;5067934;28;20466;-74
2021/12/02 00:26:29;;;;;;;5.00;2.30;;;;;;;-1.33;100.00;98489.25;5084406;28;20473;-74
2021/12/02 00:28:56;;;;;;;4.60;2.15;;;;;;;-1.38;100.00;98467.91;5084388;28;20032;-74
2021/12/02 00:31:25;;;;;;;4.70;1.95;;;;;;;-1.37;100.00;98471.34;5084557;28;20134;-74
2021/12/02 00:33:53;;;;;;;7.07;1.92;;;;;;;-1.31;100.00;98479.47;5067327;28;20047;-74
2021/12/02 00:36:21;;;;;;;2.83;1.65;;;;;;;-1.42;100.00;98439.53;5067445;28;20036;-74
2021/12/02 00:38:48;;;;;;;3.88;2.13;;;;;;;-1.29;100.00;98455.72;5068318;28;20044;-74
2021/12/02 00:41:16;;;;;;;4.72;1.50;;;;;;;-1.33;100.00;98433.44;5084286;28;20058;-74
2021/12/02 00:43:44;;;;;;;2.95;1.65;;;;;;;-1.32;100.00;98414.97;5083912;28;20036;-75
2021/12/02 00:46:13;;;;;;;4.90;1.58;;;;;;;-1.25;100.00;98414.41;5084324;28;20126;-75
2021/12/02 00:48:39;;;;;;;2.72;1.30;;;;;;;-1.34;100.00;98372.38;5084042;28;20029;-75
2021/12/02 00:51:06;;;;;;;3.35;1.90;;;;;;;-1.31;100.00;98374.75;5084227;28;20529;-75
2021/12/02 00:53:33;;;;;;;1.55;1.15;;;;;;;-1.29;100.00;98358.88;5068165;28;20036;-75
2021/12/02 00:56:05;;;;;;;3.17;1.30;;;;;;;-1.29;100.00;98351.88;5083739;28;20037;-75
2021/12/02 00:58:32;;;;;;;3.97;1.80;;;;;;;-1.24;100.00;98345.34;5068252;28;20059;-75
2021/12/02 01:00:58;;;;;;;3.80;2.10;;;;;;;-1.24;100.00;98340.09;5050579;28;20411;-75
2021/12/02 01:03:32;;;;;;;;;;;;;;;-1.30;100.00;98323.19;5084338;28;20054;-75
2021/12/02 01:05:59;;;;;;;1.88;1.25;;;;;;;-1.27;100.00;98333.38;5067136;28;20369;-75
2021/12/02 01:08:26;;;;;;;4.28;1.85;;;;;;;-1.33;100.00;98308.63;5068355;28;20098;-75
2021/12/02 01:10:52;;;;;;;3.95;1.30;;;;;;;-1.23;100.00;98320.81;5083857;28;20037;-76
2021/12/02 01:13:18;;;;;;;;;;;;;;;-1.33;100.00;98316.47;5067487;28;20089;-75
2021/12/02 01:15:43;;;;;;;3.50;1.55;;;;;;;-1.27;100.00;98331.56;5050454;28;20018;-75
2021/12/02 01:18:09;;;;;;;2.45;1.38;;;;;;;-1.25;100.00;98315.72;5084047;28;20095;-75
2021/12/02 01:20:35;;;;;;;4.32;1.55;;;;;;;-1.18;100.00;98326.44;5083857;28;20047;-75
2021/12/02 01:23:02;;;;;;;4.50;2.22;;;;;;;-1.12;100.00;98328.47;5083748;28;20105;-75
2021/12/02 01:25:30;;;;;;;2.85;1.05;;;;;;;-1.11;100.00;98341.41;5066718;28;20042;-75
2021/12/02 01:27:58;;;;;;;1.65;1.00;;;;;;;-1.10;100.00;98342.22;5067845;28;20105;-76
2021/12/02 01:30:25;;;;;;;3.88;1.30;;;;;;;-1.13;100.00;98356.44;5083738;28;20383;-75
2021/12/02 01:32:55;;;;;;;2.90;1.00;;;;;;;-1.14;100.00;98356.59;5083861;28;20054;-75
2021/12/02 01:35:25;;;;;;;2.28;0.85;;;;;;;-1.21;100.00;98321.50;5083694;28;20020;-76
2021/12/02 01:37:51;;;;;;;8.48;1.63;;;;;;;-1.25;100.00;98348.94;5067998;28;20044;-75
2021/12/02 01:40:17;;;;;;;2.55;1.10;;;;;;;-1.18;100.00;98357.84;5083672;28;20033;-76
2021/12/02 01:42:46;;;;;;;1.50;1.23;;;;;;;-1.15;100.00;98361.03;5067879;28;20043;-76
2021/12/02 01:45:16;;;;;;;6.32;1.15;;;;;;;-1.16;100.00;98369.00;5066668;28;20101;-75
2021/12/02 01:47:48;;;;;;;2.15;0.88;;;;;;;-1.13;100.00;98377.38;5067998;28;20043;-75
2021/12/02 01:50:16;;;;;;;3.97;1.50;;;;;;;-1.20;100.00;98368.47;5066973;28;20584;-75
2021/12/02 01:52:45;;;;;;;1.83;1.00;;;;;;;-1.20;100.00;98376.31;5067720;28;20458;-75
2021/12/02 01:55:14;;;;;;;5.40;2.53;;;;;;;-1.12;100.00;98389.53;5083244;28;20379;-76
2021/12/02 01:57:46;;;;;;;1.58;0.93;;;;;;;-1.15;100.00;98391.59;5069432;28;20405;-76
2021/12/02 02:00:20;;;;;;;1.40;1.25;;;;;;;-1.22;100.00;98393.16;5066825;28;20120;-75
2021/12/02 02:02:47;;;;;;;5.47;0.85;;;;;;;-1.18;100.00;98394.53;5070504;28;20082;-75
2021/12/02 02:05:16;;;;;;;1.00;0.70;;;;;;;-1.23;100.00;98397.56;5087078;28;20032;-75
2021/12/02 02:08:01;;;;;;;4.13;1.15;;;;;;;-1.24;100.00;98395.94;5086440;28;20127;-75
2021/12/02 02:10:32;;;;;;;2.35;0.80;;;;;;;-1.16;100.00;98403.88;5086940;28;20051;-75
2021/12/02 02:13:00;;;;;;;2.25;1.00;;;;;;;-1.21;100.00;98413.16;5087101;28;20029;-75
2021/12/02 02:15:26;;;;;;;5.82;0.90;;;;;;;-1.20;100.00;98415.59;5086541;28;20111;-75
2021/12/02 02:17:58;;;;;;;2.42;0.82;;;;;;;-1.19;100.00;98422.50;5086902;28;20475;-75
2021/12/02 02:20:38;;;;;;;2.92;0.88;;;;;;;-1.14;100.00;98430.75;5071195;28;20029;-75
2021/12/02 02:23:07;;;;;;;1.58;0.82;;;;;;;-1.09;100.00;98438.97;5070908;28;20043;-75
2021/12/02 02:25:33;;;;;;;1.35;0.70;;;;;;;-1.10;100.00;98439.97;5069721;28;20066;-75
2021/12/02 02:27:59;;;;;;;1.35;0.88;;;;;;;-1.24;100.00;98421.28;5086552;28;20032;-75
2021/12/02 02:30:25;;;;;;;4.25;1.00;;;;;;;-1.17;100.00;98430.19;5086588;28;20084;-75
2021/12/02 02:32:50;;;;;;;1.73;1.05;;;;;;;-1.11;100.00;98437.47;5086546;28;20036;-75
2021/12/02 02:35:16;;;;;;;1.60;0.77;;;;;;;-1.15;100.00;98438.72;5086547;28;20454;-75
2021/12/02 02:37:42;;;;;;;0.93;0.80;;;;;;;-1.07;100.00;98470.28;5086426;28;20044;-75
2021/12/02 02:40:10;;;;;;;1.30;1.05;;;;;;;-1.16;100.00;98452.81;5070511;28;20024;-76
2021/12/02 02:42:37;;;;;;;3.53;0.95;;;;;;;-1.16;100.00;98460.66;5086140;28;20044;-75
2021/12/02 02:45:03;;;;;;;;;;;;;;;-1.15;100.00;98462.31;5069646;28;20024;-75
2021/12/02 02:47:29;;;;;;;2.65;0.70;;;;;;;-1.14;100.00;98467.41;5068641;28;19923;-75
2021/12/02 02:49:55;;;;;;;1.58;0.90;;;;;;;-1.13;100.00;98482.13;5069413;28;20465;-75
2021/12/02 02:52:22;;;;;;;1.85;0.80;;;;;;;-1.17;100.00;98472.94;5070097;28;20518;-75
2021/12/02 02:54:48;;;;;;;2.38;0.90;;;;;;;-1.23;100.00;98480.53;5085847;28;20029;-75
2021/12/02 02:57:15;;;;;;;2.20;1.17;;;;;;;-1.19;100.00;98480.09;5086221;28;20366;-75
2021/12/02 03:00:02;;;;;;;1.02;0.70;;;;;;;-1.14;100.00;98500.63;5052415;28;20025;-75
2021/12/02 03:02:41;;;;;;;4.60;0.63;;;;;;;-1.10;100.00;98486.25;5069382;28;20513;-75
2021/12/02 03:05:21;;;;;;;1.25;0.80;;;;;;;-1.12;100.00;98493.47;5069815;28;20082;-75
2021/12/02 03:07:54;;;;;;;2.40;0.90;;;;;;;-1.11;100.00;98490.69;5085291;28;20512;-75
2021/12/02 03:10:46;;;;;;;1.85;0.80;;;;;;;-1.13;100.00;98502.25;5069072;28;20115;-76
2021/12/02 03:18:27;;;;;;;1.17;0.55;;;;;;;-1.09;100.00;98508.88;5069882;28;20036;-75
2021/12/02 03:20:53;;;;;;;1.23;0.68;;;;;;;-1.04;100.00;98519.75;5085787;28;20037;-75
2021/12/02 03:23:18;;;;;;;1.63;0.93;;;;;;;-1.03;100.00;98526.66;5085421;28;20039;-75
2021/12/02 03:25:45;;;;;;;5.97;1.00;;;;;;;-1.03;100.00;98524.03;5086229;28;20056;-75
2021/12/02 03:28:11;;;;;;;6.23;0.90;;;;;;;-1.08;100.00;98513.13;5086660;28;20450;-75
2021/12/02 03:30:36;;;;;;;3.05;1.27;;;;;;;-1.09;100.00;98522.78;5070540;28;20383;-75
2021/12/02 03:33:02;;;;;;;1.70;0.82;;;;;;;-1.06;100.00;98521.69;5086449;28;20151;-76
2021/12/02 03:35:27;;;;;;;8.77;1.30;;;;;;;-1.01;100.00;98514.22;5086335;28;20431;-75
2021/12/02 03:37:53;;;;;;;2.25;0.95;;;;;;;-1.03;100.00;98518.78;5070433;28;20033;-75
2021/12/02 03:40:18;;;;;;;2.95;0.73;;;;;;;-1.05;100.00;98507.63;5086507;28;20111;-75
2021/12/02 03:42:53;;;;;;;4.68;0.77;;;;;;;-0.93;100.00;98510.91;5070376;28;20060;-76
2021/12/02 03:45:21;;;;;;;0.75;0.75;;;;;;;-1.02;100.00;98515.19;5086043;28;20049;-75
2021/12/02 03:47:46;;;;;;;0.52;0.50;;;;;;;-1.00;100.00;98520.28;5086256;28;20047;-75
2021/12/02 03:50:12;;;;;;;0.90;0.60;;;;;;;-0.95;100.00;98534.59;5086330;28;20040;-75
2021/12/02 03:52:38;;;;;;;1.58;0.70;;;;;;;-0.96;100.00;98527.72;5069205;28;20112;-75
2021/12/02 03:55:04;;;;;;;1.50;0.85;;;;;;;-0.91;100.00;98549.06;5085876;28;20449;-76
2021/12/02 03:57:31;;;;;;;6.90;1.00;;;;;;;-0.93;100.00;98547.56;5070218;28;20037;-76
2021/12/02 04:00:01;;;;;;;4.32;1.00;;;;;;;-0.85;100.00;98558.97;5085574;28;20045;-75
2021/12/02 04:02:27;;;;;;;1.88;0.93;;;;;;;-0.91;100.00;98533.34;5069262;28;20038;-75
2021/12/02 04:04:52;;;;;;;;;;;;;;;-0.82;100.00;98562.25;5086273;28;20073;-75
2021/12/02 04:07:19;;;;;;;3.08;1.33;;;;;;;-0.86;100.00;98549.47;5068425;28;19920;-76
2021/12/02 04:09:46;;;;;;;1.10;0.60;;;;;;;-0.81;100.00;98574.41;5085893;28;20097;-75
2021/12/02 04:15:06;;;;;;;2.25;0.68;;;;;;;-0.82;100.00;98575.38;5085596;28;20036;-75
2021/12/02 04:17:44;;;;;;;4.78;0.73;;;;;;;-0.82;100.00;98562.25;5085588;28;20041;-76
2021/12/02 04:20:15;;;;;;;1.42;0.80;;;;;;;-0.76;100.00;98582.66;5085739;28;20040;-76
2021/12/02 04:22:41;;;;;;;3.58;1.02;;;;;;;-0.79;100.00;98580.34;5068854;28;20044;-75
2021/12/02 04:25:08;;;;;;;2.80;1.00;;;;;;;-0.82;100.00;98581.47;5084973;28;20123;-76
2021/12/02 04:27:34;;;;;;;4.63;1.08;;;;;;;-0.75;100.00;98605.28;5085713;28;20028;-76
2021/12/02 04:29:59;;;;;;;1.27;0.73;;;;;;;-0.77;99.91;98581.00;5068624;28;20028;-77
2021/12/02 04:32:24;;;;;;;3.75;0.70;;;;;;;-0.76;99.79;98580.88;5069630;28;20407;-75
2021/12/02 04:34:50;;;;;;;1.55;0.77;;;;;;;-0.74;99.38;98596.44;5085236;28;20480;-75
2021/12/02 04:37:15;;;;;;;3.63;1.35;;;;;;;-0.61;99.30;98610.03;5085691;28;20077;-76
2021/12/02 04:39:41;;;;;;;2.97;0.82;;;;;;;-0.76;99.34;98599.22;5085463;28;20472;-75
2021/12/02 04:42:07;;;;;;;2.17;0.65;;;;;;;-0.68;99.09;98611.59;5085411;28;20036;-76
2021/12/02 04:44:32;;;;;;;2.80;1.33;;;;;;;-0.74;99.13;98606.94;5068321;28;20086;-76
2021/12/02 04:46:58;;;;;;;5.55;1.25;;;;;;;-0.77;98.49;98609.81;5085330;28;20043;-75
2021/12/02 04:49:23;;;;;;;4.20;0.98;;;;;;;-0.72;99.00;98620.72;5069565;28;20028;-76
2021/12/02 04:51:49;;;;;;;1.67;0.47;;;;;;;-0.73;98.71;98617.25;5069570;28;20130;-75
2021/12/02 04:54:14;;;;;;;2.47;1.13;;;;;;;-0.75;98.41;98619.22;5069237;28;20288;-76
2021/12/02 04:56:40;;;;;;;10.63;0.93;;;;;;;-0.74;98.14;98612.19;5068602;28;20051;-76
2021/12/02 04:59:05;;;;;;;6.57;0.73;;;;;;;-0.76;97.96;98608.88;5085192;28;20111;-75
2021/12/02 05:01:31;;;;;;;1.38;0.68;;;;;;;-0.80;98.35;98597.00;5069467;28;20078;-75
2021/12/02 05:03:56;;;;;;;3.03;0.82;;;;;;;-0.79;98.36;98630.94;5069070;28;20041;-76
2021/12/02 05:06:22;;;;;;;4.60;1.15;;;;;;;-0.80;98.20;98631.06;5069368;28;20040;-76
2021/12/02 05:08:47;;;;;;;3.60;1.27;;;;;;;-0.69;98.34;98651.88;5067933;28;20099;-76
2021/12/02 05:11:12;;;;;;;3.83;0.90;;;;;;;-0.71;98.28;98648.56;5069309;28;20310;-75
2021/12/02 05:13:38;;;;;;;7.70;1.77;;;;;;;-0.71;97.95;98652.00;5069087;28;20041;-76
2021/12/02 05:16:04;;;;;;;7.28;1.25;;;;;;;-0.70;98.10;98656.31;5085253;28;20040;-76
2021/12/02 05:18:29;;;;;;;2.35;1.40;;;;;;;-0.73;97.86;98640.84;5085065;28;20132;-75
2021/12/02 05:20:56;;;;;;;2.38;1.77;;;;;;;-0.79;97.72;98657.16;5068001;28;20024;-75
2021/12/02 05:23:22;;;;;;;5.15;1.30;;;;;;;-0.78;97.47;98640.44;5068211;28;20048;-76
2021/12/02 05:25:47;;;;;;;7.38;1.10;;;;;;;-0.75;97.14;98641.94;5069024;28;20047;-76
2021/12/02 05:28:15;;;;;;;4.57;0.90;;;;;;;-0.78;97.07;98642.25;5085071;28;20055;-76
2021/12/02 05:30:42;;;;;;;2.80;0.80;;;;;;;-0.73;97.30;98668.84;5084815;28;20107;-76
2021/12/02 05:33:08;;;;;;;3.28;0.88;;;;;;;-0.74;97.26;98669.81;5069149;28;20119;-76
2021/12/02 05:35:34;;;;;;;3.08;0.90;;;;;;;-0.78;97.25;98669.28;5068370;28;20115;-76
2021/12/02 05:37:59;;;;;;;3.17;0.55;;;;;;;-0.78;96.56;98668.44;5072813;28;20033;-75
2021/12/02 05:40:25;;;;;;;3.15;0.90;;;;;;;-0.71;97.02;98685.25;5088415;28;20489;-76
2021/12/02 05:42:50;;;;;;;2.33;1.00;;;;;;;-0.76;96.33;98671.75;5072750;28;20056;-76
2021/12/02 05:45:16;;;;;;;5.70;1.55;;;;;;;-0.75;96.69;98673.41;5088494;28;20029;-76
2021/12/02 05:47:41;;;;;;;5.05;1.67;;;;;;;-0.78;97.05;98692.03;5088719;28;20046;-75
2021/12/02 05:50:07;;;;;;;5.35;1.23;;;;;;;-0.81;96.91;98690.53;5088505;28;20043;-76
2021/12/02 05:52:33;;;;;;;8.38;2.25;;;;;;;-0.75;97.42;98704.84;5072389;28;20074;-76
2021/12/02 05:54:58;;;;;;;6.38;1.13;;;;;;;-0.78;97.67;98713.00;5088057;28;20089;-76
2021/12/02 05:57:24;;;;;;;6.20;1.48;;;;;;;-0.76;97.78;98713.69;5088613;28;20037;-76
2021/12/02 05:59:50;;;;;;;8.13;1.85;;;;;;;-0.85;97.71;98703.06;5072508;28;20350;-76
2021/12/02 06:02:15;;;;;;;6.32;1.67;;;;;;;-0.94;97.63;98706.50;5072597;28;20041;-76
2021/12/02 06:04:42;;;;;;;4.75;2.20;;;;;;;-0.88;98.33;98728.72;5072128;28;20033;-76
2021/12/02 06:07:08;;;;;;;6.15;1.00;;;;;;;-0.88;98.23;98720.88;5087654;28;20032;-76
2021/12/02 06:09:33;;;;;;;9.98;1.45;;;;;;;-0.93;98.06;98721.28;5088451;28;20478;-75
2021/12/02 06:12:00;;;;;;;5.43;1.38;;;;;;;-0.86;98.05;98740.72;5088233;28;20033;-76
2021/12/02 06:14:25;;;;;;;;;;;;;;;-0.94;98.36;98739.75;5072339;28;20050;-76
2021/12/02 06:16:51;;;;;;;8.85;2.90;;;;;;;-0.98;98.43;98735.78;5072189;28;19917;-76
2021/12/02 06:19:16;;;;;;;3.92;1.40;;;;;;;-1.02;98.59;98735.22;5072019;28;20123;-76
2021/12/02 06:21:42;;;;;;;8.45;2.28;;;;;;;-0.94;98.76;98758.09;5071928;28;20044;-76
2021/12/02 06:24:08;;;;;;;6.70;2.15;;;;;;;-0.94;98.37;98761.53;5071716;28;20043;-76
2021/12/02 06:26:33;;;;;;;;;;;;;;;-0.87;98.77;98780.16;5088451;28;20036;-77
2021/12/02 06:28:59;;;;;;;5.57;1.45;;;;;;;-0.96;98.68;98779.19;5071069;28;19917;-76
2021/12/02 06:31:25;;;;;;;5.32;1.95;;;;;;;-0.97;98.45;98780.16;5070993;28;20638;-76
2021/12/02 06:33:50;;;;;;;7.53;1.55;;;;;;;-0.95;98.41;98786.09;5070746;28;20036;-76
2021/12/02 06:36:16;;;;;;;9.88;1.70;;;;;;;-0.94;98.68;98792.97;5071710;28;20446;-75
2021/12/02 06:38:42;;;;;;;6.60;1.00;;;;;;;-1.03;98.81;98780.72;5071845;28;20122;-76
2021/12/02 06:41:07;;;;;;;;;;;;;;;-0.90;98.48;98807.44;5072099;28;20127;-76
2021/12/02 06:43:34;;;;;;;8.52;1.98;;;;;;;-0.91;97.70;98791.88;5070485;28;20019;-76
2021/12/02 06:45:59;;;;;;;4.18;1.05;;;;;;;-0.82;97.48;98798.06;5086603;28;20068;-76
2021/12/02 06:48:25;;;;;;;4.88;1.85;;;;;;;-0.90;97.23;98781.25;5086231;28;20036;-76
2021/12/02 06:50:51;;;;;;;4.18;1.40;;;;;;;-0.83;96.93;98797.25;5085973;28;20024;-76
2021/12/02 06:53:17;;;;;;;8.55;1.63;;;;;;;-0.92;96.51;98783.19;5069208;28;20042;-76
2021/12/02 06:55:43;;;;;;;8.60;2.10;;;;;;;-0.88;96.55;98802.09;5085838;28;20048;-76
2021/12/02 06:58:09;;;;;;;11.25;2.00;;;;;;;-0.92;96.65;98806.75;5071183;28;20056;-75
2021/12/02 07:00:34;;;;;;;14.32;2.13;;;;;;;-0.85;96.32;98804.41;5071414;28;20079;-76
2021/12/02 07:03:01;;;;;;;8.70;1.92;;;;;;;-0.83;96.19;98806.91;5069366;28;20040;-75
2021/12/02 07:05:29;;;;;;;4.65;1.58;;;;;;;-0.79;96.12;98824.84;5086666;28;20094;-75
2021/12/02 07:07:55;;;;;;;4.07;1.90;;;;;;;-0.83;96.04;98820.00;5070265;28;20051;-76
2021/12/02 07:10:24;;;;;;;7.00;2.40;;;;;;;-0.92;95.93;98827.72;5070266;28;20025;-76
2021/12/02 07:12:55;;;;;;;12.82;1.67;;;;;;;-0.91;96.26;98842.50;5086992;28;20036;-76
2021/12/02 07:15:25;;;;;;;9.48;1.58;;;;;;;-0.99;96.53;98844.13;5070734;28;20044;-76
2021/12/02 07:17:55;;;;;;;4.03;2.20;;;;;;;-0.89;96.51;98860.66;5070907;28;20047;-75
2021/12/02 07:20:25;;;;;;;5.40;1.83;;;;;;;-0.85;96.14;98860.25;5070778;28;20037;-75
2021/12/02 07:22:51;;;;;;;5.20;2.17;;;;;;;-0.83;96.19;98864.56;5086288;28;20028;-75
2021/12/02 07:25:16;;;;;;;9.32;4.00;;;;;;;-0.82;95.73;98858.34;5086342;28;20040;-75
2021/12/02 07:27:42;;;;;;;6.07;1.55;;;;;;;-0.79;95.42;98863.34;5086599;28;20052;-76
2021/12/02 07:30:09;;;;;;;3.53;1.30;;;;;;;-0.81;95.23;98854.78;5070682;28;20039;-75
2021/12/02 07:32:40;;;;;;;9.55;2.20;;;;;;;-0.83;94.90;98868.00;5070629;28;20025;-75
2021/12/02 07:35:11;;;;;;;2.35;1.10;;;;;;;-0.85;94.81;98865.50;5069317;28;20036;-75
2021/12/02 07:37:46;;;;;;;7.18;1.75;;;;;;;-0.93;95.08;98868.00;5053037;28;20102;-75
2021/12/02 07:40:14;;;;;;;6.80;1.53;;;;;;;-0.88;94.82;98878.06;5070509;28;20047;-76
2021/12/02 07:42:40;;;;;;;7.35;2.15;;;;;;;-0.88;94.59;98878.06;5070301;28;20044;-75
2021/12/02 07:45:07;;;;;;;11.35;1.95;;;;;;;-0.77;94.31;98895.44;5086154;28;20044;-75
2021/12/02 07:47:37;;;;;;;8.10;2.22;;;;;;;-0.73;94.19;98904.69;5086091;28;20103;-76
2021/12/02 07:50:03;;;;;;;9.88;2.72;;;;;;;-0.79;93.82;98892.16;5086275;28;20476;-76
2021/12/02 07:52:29;;;;;;;7.00;3.20;;;;;;;-0.72;93.85;98891.47;5070219;28;20044;-76
2021/12/02 07:54:55;;;;;;;5.03;1.65;;;;;;;-0.69;93.85;98909.53;5086008;28;20040;-76
2021/12/02 07:57:21;;;;;;;;;;;;;;;-0.76;94.21;98903.19;5086137;28;20040;-76
2021/12/02 07:59:52;;;;;;;13.75;2.17;;;;;;;-0.76;94.30;98912.84;5067954;28;19916;-76
2021/12/02 08:02:18;;;;;;;4.35;1.85;;;;;;;-0.74;93.91;98918.78;5069105;28;20036;-76
2021/12/02 08:04:43;;;;;;;6.50;1.83;;;;;;;-0.65;93.76;98920.59;5069060;28;20097;-77
2021/12/02 08:07:09;;;;;;;6.57;3.15;;;;;;;-0.67;93.81;98920.72;5068870;28;20043;-77
2021/12/02 08:09:35;;;;;;;6.80;1.85;;;;;;;-0.69;92.99;98909.53;5085735;28;20051;-77
2021/12/02 08:12:01;;;;;;;8.20;1.60;;;;;;;-0.60;92.71;98918.38;5070099;28;20029;-77
2021/12/02 08:14:27;;;;;;;11.23;2.28;;;;;;;-0.54;92.89;98933.59;5069796;28;20093;-77
2021/12/02 08:16:53;;;;;;;4.88;1.52;;;;;;;-0.46;92.59;98946.81;5069689;28;20041;-76
2021/12/02 08:19:20;;;;;;;12.93;2.50;;;;;;;-0.58;92.89;98932.19;5069027;28;20104;-77
2021/12/02 08:21:46;;;;;;;3.50;1.38;;;;;;;-0.51;92.79;98958.69;5085915;28;20086;-77
2021/12/02 08:24:11;;;;;;;7.93;2.17;;;;;;;-0.51;92.42;98948.22;5085503;28;20078;-77
2021/12/02 08:26:37;;;;;;;9.43;1.45;;;;;;;-0.49;92.02;98952.34;5085675;28;20555;-76
2021/12/02 08:29:04;;;;;;;3.05;1.20;;;;;;;-0.39;91.53;98947.09;5069646;28;20048;-76
2021/12/02 08:31:29;;;;;;;4.18;1.58;;;;;;;-0.49;91.64;98951.53;5085660;28;20094;-76
2021/12/02 08:33:56;;;;;;;5.43;1.67;;;;;;;-0.47;91.34;98960.06;5068602;28;20059;-77
2021/12/02 08:36:26;;;;;;;30.30;2.28;;;;;;;-0.41;91.47;98964.78;5068833;28;20037;-76
2021/12/02 08:38:52;;;;;;;12.07;1.48;;;;;;;-0.49;91.21;98960.22;5052126;28;20041;-76
2021/12/02 08:41:18;;;;;;;5.85;1.40;;;;;;;-0.53;91.22;98964.06;5069643;28;20126;-77
2021/12/02 08:43:44;;;;;;;;;;;;;;;-0.29;90.94;98999.56;5069726;28;20039;-76
2021/12/02 08:46:10;;;;;;;4.53;1.05;;;;;;;-0.30;90.86;98990.88;5069575;28;20293;-76
2021/12/02 08:48:35;;;;;;;6.32;1.63;;;;;;;-0.22;90.71;98996.25;5085435;28;20093;-76
2021/12/02 08:51:01;;;;;;;5.40;1.87;;;;;;;-0.38;90.70;98974.16;5068824;28;20107;-76
2021/12/02 08:53:26;;;;;;;8.18;1.50;;;;;;;-0.28;90.93;98998.59;5084980;28;20624;-76
2021/12/02 08:55:52;;;;;;;6.18;1.88;;;;;;;-0.20;90.22;98992.69;5085225;28;20036;-76
2021/12/02 08:58:18;;;;;;;6.63;2.00;;;;;;;-0.20;90.59;98988.25;5085363;28;20028;-76
2021/12/02 09:00:44;;;;;;;7.55;2.55;;;;;;;-0.14;90.13;98994.75;5069612;28;20075;-77
2021/12/02 09:03:14;;;;;;;7.95;1.58;;;;;;;-0.08;90.31;99000.28;5085388;28;20156;-76
2021/12/02 09:05:40;;;;;;;2.63;1.00;;;;;;;0.08;89.65;99012.84;5069202;28;20040;-77
2021/12/02 09:08:06;;;;;;;6.57;1.63;;;;;;;0.11;89.81;99007.31;5069531;28;20081;-76
2021/12/02 09:10:33;;;;;;;6.18;1.45;;;;;;;0.25;89.38;99034.94;5071799;28;20032;-77
2021/12/02 09:12:59;;;;;;;5.45;2.30;;;;;;;0.36;88.71;99031.38;5089484;28;20409;-77
2021/12/02 09:15:25;;;;;;;5.05;1.75;;;;;;;0.52;88.30;99025.56;5073097;28;20032;-77
2021/12/02 09:17:51;;;;;;;10.02;2.65;;;;;;;0.63;87.48;99036.72;5073078;28;20446;-77
2021/12/02 09:20:16;;;;;;;7.07;1.70;;;;;;;0.67;87.39;99021.50;5089135;28;20124;-77
2021/12/02 09:22:43;;;;;;;11.40;1.70;;;;;;;0.94;87.47;99077.75;5073505;28;20482;-77
2021/12/02 09:25:09;;;;;;;5.57;1.60;;;;;;;1.05;86.38;99048.63;5055528;28;20621;-77
2021/12/02 09:27:35;;;;;;;5.93;1.73;;;;;;;1.26;85.77;99037.91;5073299;28;20166;-77
2021/12/02 09:30:01;;;;;;;7.47;1.75;;;;;;;1.34;84.79;99032.78;5088987;28;20119;-77
2021/12/02 09:32:27;;;;;;;;;;;;;;;1.71;84.36;99075.78;5073561;28;20053;-77
2021/12/02 09:34:53;;;;;;;4.15;1.33;;;;;;;2.52;82.48;99087.16;5072004;28;20387;-77
2021/12/02 09:37:19;;;;;;;11.15;2.80;;;;;;;2.58;80.95;99037.47;5073009;28;20029;-76
2021/12/02 09:40:06;;;;;;;7.07;1.95;;;;;;;3.27;79.72;99057.69;5073024;28;20051;-76
2021/12/02 09:42:31;;;;;;;3.17;1.80;;;;;;;3.72;77.48;99040.75;5088469;28;20044;-75
2021/12/02 09:45:00;;;;;;;8.30;2.23;;;;;;;3.95;74.95;98995.25;5089543;28;20028;-75
2021/12/02 09:47:29;;;;;;;5.57;1.40;;;;;;;3.95;73.32;98943.25;5085657;28;20028;-74
2021/12/02 09:49:54;;;;;;;2.55;1.48;;;;;;;3.86;72.95;98923.09;5092715;28;20058;-73
2021/12/02 09:52:29;;;;;;;5.68;1.45;;;;;;;4.30;72.64;98978.25;5091639;28;20040;-74
2021/12/02 09:55:03;;;;;;;12.35;2.88;;;;;;;4.72;71.28;98949.97;5091427;28;20040;-73
2021/12/02 09:57:34;;;;;;;7.10;2.67;;;;;;;4.88;70.99;98960.50;5091583;28;20039;-73
2021/12/02 10:00:00;;;;;;;6.18;1.55;;;;;;;4.58;71.50;98956.78;5092392;28;20046;-74
2021/12/02 10:02:25;;;;;;;3.83;1.10;;;;;;;3.40;71.36;98854.13;5092601;28;20031;-74
2021/12/02 10:04:56;;;;;;;4.17;1.30;;;;;;;3.17;73.16;98907.47;5092137;28;20040;-74
2021/12/02 10:07:29;;;;;;;2.20;1.00;;;;;;;3.08;73.77;98936.63;5091630;28;20289;-74
2021/12/02 10:12:31;;;;;;;7.68;1.35;;;;;;;2.57;75.83;98962.03;5091242;28;20042;-74
2021/12/02 10:14:59;;;;;;;3.92;1.10;;;;;;;2.45;76.00;98946.47;5085681;28;20047;-74
2021/12/02 10:17:52;;;;;;;5.10;1.30;;;;;;;2.20;77.10;98982.38;5085417;28;20036;-75
2021/12/02 10:20:53;;;;;;;8.30;2.40;;;;;;;2.73;78.32;99068.38;5091020;28;20028;-73
2021/12/02 10:23:23;;;;;;;2.40;1.00;;;;;;;2.46;76.77;98979.75;5068055;28;20135;-73
2021/12/02 10:25:58;;;;;;;7.43;1.40;;;;;;;2.63;77.00;99003.59;5070456;28;20114;-73
2021/12/02 10:28:27;;;;;;;5.60;1.83;;;;;;;2.38;77.53;99006.03;5088519;28;20595;-74
2021/12/02 10:30:58;;;;;;;4.18;1.15;;;;;;;2.46;77.73;99029.00;5090910;28;20082;-74
2021/12/02 10:33:37;;;;;;;6.85;1.35;;;;;;;2.53;77.84;99049.31;5082641;28;20032;-74
2021/12/02 10:36:20;;;;;;;8.55;1.40;;;;;;;2.74;78.69;99079.78;5089683;28;20070;-74
2021/12/02 10:38:46;;;;;;;8.52;1.38;;;;;;;2.41;78.37;99044.41;5069823;28;20037;-74
2021/12/02 10:41:24;;;;;;;4.65;1.02;;;;;;;2.40;79.01;99083.09;5069651;28;20048;-74
2021/12/02 10:44:08;;;;;;;3.25;1.45;;;;;;;2.21;78.27;99020.06;5069249;28;20048;-74
2021/12/02 10:46:36;;;;;;;11.13;1.95;;;;;;;1.90;78.61;98997.56;5069702;28;20688;-74
2021/12/02 10:49:04;;;;;;;4.88;1.30;;;;;;;2.01;79.59;99070.19;5069608;28;20477;-74
2021/12/02 10:51:38;;;;;;;3.95;1.30;;;;;;;1.95;80.01;99076.06;5070369;28;20032;-75
2021/12/02 10:54:13;;;;;;;7.22;1.15;;;;;;;2.11;78.94;99068.34;5069110;28;20046;-74
2021/12/02 10:56:41;;;;;;;4.90;1.98;;;;;;;2.07;78.60;99040.66;5069318;28;20040;-74
2021/12/02 10:59:21;;;;;;;4.65;1.20;;;;;;;2.35;78.80;99093.25;5069235;28;20028;-74
2021/12/02 11:01:47;;;;;;;7.45;1.88;;;;;;;2.20;79.13;99076.31;5069232;28;20036;-74
2021/12/02 11:04:13;;;;;;;2.50;1.55;;;;;;;2.14;79.16;99066.38;5069049;28;20398;-75
2021/12/02 11:06:44;;;;;;;8.27;1.30;;;;;;;1.81;78.99;99029.22;5069198;28;20036;-76
2021/12/02 11:09:43;;;;;;;7.97;2.15;;;;;;;1.80;80.19;99095.94;5069961;28;20450;-76
2021/12/02 11:12:21;;;;;;;7.07;1.50;;;;;;;1.68;80.19;99093.50;5057949;28;20437;-74
2021/12/02 11:15:07;;;;;;;6.10;1.30;;;;;;;1.54;79.92;99066.88;5069858;28;20051;-74
2021/12/02 11:17:37;;;;;;;5.53;1.35;;;;;;;1.57;80.30;99084.97;5069862;28;20048;-76
2021/12/02 11:20:09;;;;;;;6.18;1.73;;;;;;;1.49;80.96;99109.38;5084947;28;20035;-77
2021/12/02 11:22:35;;;;;;;2.90;1.35;;;;;;;1.49;81.13;99125.16;5087538;28;20035;-77
2021/12/02 11:25:02;;;;;;;6.82;1.17;;;;;;;1.39;81.79;99145.41;5083068;28;20043;-77
2021/12/02 11:27:34;;;;;;;5.85;1.05;;;;;;;1.36;81.75;99140.41;5071962;28;20110;-76
2021/12/02 11:30:10;;;;;;;5.53;2.65;;;;;;;1.46;82.62;99180.69;5088802;28;20035;-77
2021/12/02 11:32:38;;;;;;;3.72;0.90;;;;;;;1.46;81.90;99154.41;5089230;28;20032;-77
2021/12/02 11:35:23;;;;;;;10.27;2.20;;;;;;;1.48;82.06;99152.44;5088161;28;20040;-77
2021/12/02 11:37:53;;;;;;;5.45;1.48;;;;;;;1.50;81.84;99145.25;5089846;28;20048;-77
2021/12/02 11:40:25;;;;;;;4.43;1.98;;;;;;;1.46;81.38;99139.44;5086674;28;20051;-77
2021/12/02 11:42:52;;;;;;;7.00;1.30;;;;;;;1.71;81.27;99171.34;5062325;28;20032;-78
2021/12/02 11:45:21;;;;;;;15.10;2.65;;;;;;;1.80;80.68;99153.84;5074313;28;20131;-77
2021/12/02 11:47:47;;;;;;;6.93;2.45;;;;;;;1.76;80.38;99136.72;5088446;28;20035;-78
2021/12/02 11:50:15;;;;;;;9.02;1.65;;;;;;;1.54;80.43;99103.69;5080175;28;20120;-77
2021/12/02 11:52:42;;;;;;;3.97;1.30;;;;;;;1.62;80.55;99141.47;5082791;28;20093;-77
2021/12/02 11:55:24;;;;;;;4.28;1.27;;;;;;;1.45;79.98;99108.00;5126328;27;20390;-76
2021/12/02 11:57:50;;;;;;;3.97;1.15;;;;;;;1.48;80.19;99128.78;5126836;28;20482;-76